sensor_id;sensor_type;location;lat;lon;timestamp;temperature;humidity
40059;SHT31;25763;49.972;8.568;2024-03-22T00:01:41;9.24;76.95
40059;SHT31;25763;49.972;8.568;2024-03-22T00:04:06;9.20;76.97
40059;SHT31;25763;49.972;8.568;2024-03-22T00:06:31;9.29;76.51
40059;SHT31;25763;49.972;8.568;2024-03-22T00:08:57;9.12;77.06
40059;SHT31;25763;49.972;8.568;2024-03-22T00:11:22;9.04;77.65
40059;SHT31;25763;49.972;8.568;2024-03-22T00:13:47;8.88;78.40
40059;SHT31;25763;49.972;8.568;2024-03-22T00:16:12;8.84;78.49
40059;SHT31;25763;49.972;8.568;2024-03-22T00:18:38;8.78;78.48
40059;SHT31;25763;49.972;8.568;2024-03-22T00:21:03;8.57;79.44
40059;SHT31;25763;49.972;8.568;2024-03-22T00:23:28;8.45;79.97
40059;SHT31;25763;49.972;8.568;2024-03-22T00:25:56;8.39;80.03
40059;SHT31;25763;49.972;8.568;2024-03-22T00:28:21;8.36;80.25
40059;SHT31;25763;49.972;8.568;2024-03-22T00:30:47;8.25;80.53
40059;SHT31;25763;49.972;8.568;2024-03-22T00:33:12;8.15;80.81
40059;SHT31;25763;49.972;8.568;2024-03-22T00:35:37;8.01;81.51
40059;SHT31;25763;49.972;8.568;2024-03-22T00:38:03;7.91;81.78
40059;SHT31;25763;49.972;8.568;2024-03-22T00:40:28;7.80;82.19
40059;SHT31;25763;49.972;8.568;2024-03-22T00:42:54;7.66;82.59
40059;SHT31;25763;49.972;8.568;2024-03-22T00:45:19;7.59;82.80
40059;SHT31;25763;49.972;8.568;2024-03-22T00:47:44;7.63;82.72
40059;SHT31;25763;49.972;8.568;2024-03-22T00:50:10;7.75;82.38
40059;SHT31;25763;49.972;8.568;2024-03-22T00:52:35;7.76;82.07
40059;SHT31;25763;49.972;8.568;2024-03-22T00:55:00;7.73;82.50
40059;SHT31;25763;49.972;8.568;2024-03-22T00:57:25;7.67;82.70
40059;SHT31;25763;49.972;8.568;2024-03-22T00:59:51;7.63;82.67
40059;SHT31;25763;49.972;8.568;2024-03-22T01:02:16;7.62;82.83
40059;SHT31;25763;49.972;8.568;2024-03-22T01:04:42;7.49;82.97
40059;SHT31;25763;49.972;8.568;2024-03-22T01:07:07;7.42;83.19
40059;SHT31;25763;49.972;8.568;2024-03-22T01:09:32;7.31;83.30
40059;SHT31;25763;49.972;8.568;2024-03-22T01:11:58;7.28;83.35
40059;SHT31;25763;49.972;8.568;2024-03-22T01:14:23;7.23;83.88
40059;SHT31;25763;49.972;8.568;2024-03-22T01:16:48;7.26;83.80
40059;SHT31;25763;49.972;8.568;2024-03-22T01:19:14;7.31;83.73
40059;SHT31;25763;49.972;8.568;2024-03-22T01:21:39;7.31;83.80
40059;SHT31;25763;49.972;8.568;2024-03-22T01:24:04;7.34;83.74
40059;SHT31;25763;49.972;8.568;2024-03-22T01:26:30;7.48;83.29
40059;SHT31;25763;49.972;8.568;2024-03-22T01:28:55;7.44;83.16
40059;SHT31;25763;49.972;8.568;2024-03-22T01:31:20;7.49;82.90
40059;SHT31;25763;49.972;8.568;2024-03-22T01:33:46;7.63;82.28
40059;SHT31;25763;49.972;8.568;2024-03-22T01:36:11;7.63;82.36
40059;SHT31;25763;49.972;8.568;2024-03-22T01:38:37;7.58;82.35
40059;SHT31;25763;49.972;8.568;2024-03-22T01:41:02;7.55;82.47
40059;SHT31;25763;49.972;8.568;2024-03-22T01:43:29;7.45;82.77
40059;SHT31;25763;49.972;8.568;2024-03-22T01:45:54;7.30;83.45
40059;SHT31;25763;49.972;8.568;2024-03-22T01:48:19;7.35;83.26
40059;SHT31;25763;49.972;8.568;2024-03-22T01:50:45;7.44;82.75
40059;SHT31;25763;49.972;8.568;2024-03-22T01:53:10;7.51;82.37
40059;SHT31;25763;49.972;8.568;2024-03-22T01:55:36;7.55;81.99
40059;SHT31;25763;49.972;8.568;2024-03-22T01:58:01;7.62;81.62
40059;SHT31;25763;49.972;8.568;2024-03-22T02:00:28;7.52;81.82
40059;SHT31;25763;49.972;8.568;2024-03-22T02:02:53;7.39;82.43
40059;SHT31;25763;49.972;8.568;2024-03-22T02:05:19;7.21;82.88
40059;SHT31;25763;49.972;8.568;2024-03-22T02:07:46;7.16;83.29
40059;SHT31;25763;49.972;8.568;2024-03-22T02:10:11;7.26;82.92
40059;SHT31;25763;49.972;8.568;2024-03-22T02:12:40;7.36;82.49
40059;SHT31;25763;49.972;8.568;2024-03-22T02:15:07;7.42;82.01
40059;SHT31;25763;49.972;8.568;2024-03-22T02:17:33;7.45;81.71
40059;SHT31;25763;49.972;8.568;2024-03-22T02:20:00;7.46;81.35
40059;SHT31;25763;49.972;8.568;2024-03-22T02:22:26;7.49;81.04
40059;SHT31;25763;49.972;8.568;2024-03-22T02:24:51;7.51;80.88
40059;SHT31;25763;49.972;8.568;2024-03-22T02:27:17;7.51;80.67
40059;SHT31;25763;49.972;8.568;2024-03-22T02:29:42;7.48;80.45
40059;SHT31;25763;49.972;8.568;2024-03-22T02:32:09;7.32;80.55
40059;SHT31;25763;49.972;8.568;2024-03-22T02:34:35;7.23;81.00
40059;SHT31;25763;49.972;8.568;2024-03-22T02:37:01;6.97;81.42
40059;SHT31;25763;49.972;8.568;2024-03-22T02:39:26;6.83;81.67
40059;SHT31;25763;49.972;8.568;2024-03-22T02:41:51;6.59;82.02
40059;SHT31;25763;49.972;8.568;2024-03-22T02:44:17;6.65;82.22
40059;SHT31;25763;49.972;8.568;2024-03-22T02:46:42;6.65;82.17
40059;SHT31;25763;49.972;8.568;2024-03-22T02:49:07;6.57;82.45
40059;SHT31;25763;49.972;8.568;2024-03-22T02:51:33;6.64;82.43
40059;SHT31;25763;49.972;8.568;2024-03-22T02:53:58;6.51;82.54
40059;SHT31;25763;49.972;8.568;2024-03-22T02:56:23;6.36;83.18
40059;SHT31;25763;49.972;8.568;2024-03-22T02:58:49;6.26;83.28
40059;SHT31;25763;49.972;8.568;2024-03-22T03:01:14;6.16;83.48
40059;SHT31;25763;49.972;8.568;2024-03-22T03:03:40;6.03;83.98
40059;SHT31;25763;49.972;8.568;2024-03-22T03:06:05;6.02;84.14
40059;SHT31;25763;49.972;8.568;2024-03-22T03:08:31;5.97;84.35
40059;SHT31;25763;49.972;8.568;2024-03-22T03:10:56;5.92;84.31
40059;SHT31;25763;49.972;8.568;2024-03-22T03:13:21;6.05;84.21
40059;SHT31;25763;49.972;8.568;2024-03-22T03:15:47;6.23;83.70
40059;SHT31;25763;49.972;8.568;2024-03-22T03:18:12;6.40;83.20
40059;SHT31;25763;49.972;8.568;2024-03-22T03:20:37;6.50;82.73
40059;SHT31;25763;49.972;8.568;2024-03-22T03:23:03;6.52;82.44
40059;SHT31;25763;49.972;8.568;2024-03-22T03:25:29;6.42;82.97
40059;SHT31;25763;49.972;8.568;2024-03-22T03:27:54;6.58;82.71
40059;SHT31;25763;49.972;8.568;2024-03-22T03:30:19;6.23;82.57
40059;SHT31;25763;49.972;8.568;2024-03-22T03:32:45;6.09;83.55
40059;SHT31;25763;49.972;8.568;2024-03-22T03:35:10;5.98;83.86
40059;SHT31;25763;49.972;8.568;2024-03-22T03:37:35;6.01;83.72
40059;SHT31;25763;49.972;8.568;2024-03-22T03:40:01;6.07;83.63
40059;SHT31;25763;49.972;8.568;2024-03-22T03:42:26;6.10;83.53
40059;SHT31;25763;49.972;8.568;2024-03-22T03:44:51;6.13;83.58
40059;SHT31;25763;49.972;8.568;2024-03-22T03:47:17;6.10;83.52
40059;SHT31;25763;49.972;8.568;2024-03-22T03:49:45;6.15;83.47
40059;SHT31;25763;49.972;8.568;2024-03-22T03:52:10;6.19;83.44
40059;SHT31;25763;49.972;8.568;2024-03-22T03:54:35;6.15;83.37
40059;SHT31;25763;49.972;8.568;2024-03-22T03:57:01;6.03;83.58
40059;SHT31;25763;49.972;8.568;2024-03-22T03:59:26;5.98;83.89
40059;SHT31;25763;49.972;8.568;2024-03-22T04:01:52;5.92;84.00
40059;SHT31;25763;49.972;8.568;2024-03-22T04:04:17;5.84;84.10
40059;SHT31;25763;49.972;8.568;2024-03-22T04:06:44;5.88;84.20
40059;SHT31;25763;49.972;8.568;2024-03-22T04:09:09;5.87;84.23
40059;SHT31;25763;49.972;8.568;2024-03-22T04:11:35;5.99;84.09
40059;SHT31;25763;49.972;8.568;2024-03-22T04:14:00;6.12;83.86
40059;SHT31;25763;49.972;8.568;2024-03-22T04:16:25;6.16;83.62
40059;SHT31;25763;49.972;8.568;2024-03-22T04:18:51;6.15;83.55
40059;SHT31;25763;49.972;8.568;2024-03-22T04:21:17;6.16;83.43
40059;SHT31;25763;49.972;8.568;2024-03-22T04:23:42;6.26;83.21
40059;SHT31;25763;49.972;8.568;2024-03-22T04:26:08;6.40;83.00
40059;SHT31;25763;49.972;8.568;2024-03-22T04:28:33;6.52;82.58
40059;SHT31;25763;49.972;8.568;2024-03-22T04:31:03;6.65;82.32
40059;SHT31;25763;49.972;8.568;2024-03-22T04:33:30;6.76;82.16
40059;SHT31;25763;49.972;8.568;2024-03-22T04:35:56;6.81;82.02
40059;SHT31;25763;49.972;8.568;2024-03-22T04:38:22;6.89;82.03
40059;SHT31;25763;49.972;8.568;2024-03-22T04:40:48;6.96;82.15
40059;SHT31;25763;49.972;8.568;2024-03-22T04:43:14;7.06;82.08
40059;SHT31;25763;49.972;8.568;2024-03-22T04:45:44;7.10;82.05
40059;SHT31;25763;49.972;8.568;2024-03-22T04:48:12;7.17;81.87
40059;SHT31;25763;49.972;8.568;2024-03-22T04:50:37;7.20;81.81
40059;SHT31;25763;49.972;8.568;2024-03-22T04:53:03;7.30;81.77
40059;SHT31;25763;49.972;8.568;2024-03-22T04:55:28;7.32;81.61
40059;SHT31;25763;49.972;8.568;2024-03-22T04:57:53;7.36;81.48
40059;SHT31;25763;49.972;8.568;2024-03-22T05:00:19;7.39;81.43
40059;SHT31;25763;49.972;8.568;2024-03-22T05:02:44;7.48;81.38
40059;SHT31;25763;49.972;8.568;2024-03-22T05:05:10;7.49;81.31
40059;SHT31;25763;49.972;8.568;2024-03-22T05:07:36;7.52;81.28
40059;SHT31;25763;49.972;8.568;2024-03-22T05:10:01;7.58;81.26
40059;SHT31;25763;49.972;8.568;2024-03-22T05:12:27;7.65;81.34
40059;SHT31;25763;49.972;8.568;2024-03-22T05:14:52;7.66;81.45
40059;SHT31;25763;49.972;8.568;2024-03-22T05:17:17;7.75;81.43
40059;SHT31;25763;49.972;8.568;2024-03-22T05:19:43;7.76;81.28
40059;SHT31;25763;49.972;8.568;2024-03-22T05:22:08;7.86;81.17
40059;SHT31;25763;49.972;8.568;2024-03-22T05:24:33;7.87;81.02
40059;SHT31;25763;49.972;8.568;2024-03-22T05:26:59;7.91;80.98
40059;SHT31;25763;49.972;8.568;2024-03-22T05:29:25;7.93;80.94
40059;SHT31;25763;49.972;8.568;2024-03-22T05:31:50;8.00;80.87
40059;SHT31;25763;49.972;8.568;2024-03-22T05:34:19;8.05;80.85
40059;SHT31;25763;49.972;8.568;2024-03-22T05:36:45;8.05;80.87
40059;SHT31;25763;49.972;8.568;2024-03-22T05:39:10;8.11;80.78
40059;SHT31;25763;49.972;8.568;2024-03-22T05:41:37;8.18;80.77
40059;SHT31;25763;49.972;8.568;2024-03-22T05:44:02;8.22;80.75
40059;SHT31;25763;49.972;8.568;2024-03-22T05:46:28;8.24;80.80
40059;SHT31;25763;49.972;8.568;2024-03-22T05:48:54;8.18;80.96
40059;SHT31;25763;49.972;8.568;2024-03-22T05:51:19;8.20;81.07
40059;SHT31;25763;49.972;8.568;2024-03-22T05:53:45;8.24;81.06
40059;SHT31;25763;49.972;8.568;2024-03-22T05:56:10;8.28;81.10
40059;SHT31;25763;49.972;8.568;2024-03-22T05:58:35;8.36;80.96
40059;SHT31;25763;49.972;8.568;2024-03-22T06:01:02;8.38;81.05
40059;SHT31;25763;49.972;8.568;2024-03-22T06:03:28;8.43;80.94
40059;SHT31;25763;49.972;8.568;2024-03-22T06:05:54;8.57;80.59
40059;SHT31;25763;49.972;8.568;2024-03-22T06:08:22;8.71;80.22
40059;SHT31;25763;49.972;8.568;2024-03-22T06:10:48;8.88;80.03
40059;SHT31;25763;49.972;8.568;2024-03-22T06:13:13;8.95;79.90
40059;SHT31;25763;49.972;8.568;2024-03-22T06:15:38;9.09;79.85
40059;SHT31;25763;49.972;8.568;2024-03-22T06:18:05;9.19;79.74
40059;SHT31;25763;49.972;8.568;2024-03-22T06:20:31;9.20;79.70
40059;SHT31;25763;49.972;8.568;2024-03-22T06:22:56;9.36;79.52
40059;SHT31;25763;49.972;8.568;2024-03-22T06:25:22;9.43;79.56
40059;SHT31;25763;49.972;8.568;2024-03-22T06:27:47;9.50;79.31
40059;SHT31;25763;49.972;8.568;2024-03-22T06:30:13;9.62;79.31
40059;SHT31;25763;49.972;8.568;2024-03-22T06:32:38;9.57;79.02
40059;SHT31;25763;49.972;8.568;2024-03-22T06:35:04;9.64;78.99
40059;SHT31;25763;49.972;8.568;2024-03-22T06:37:31;9.65;78.93
40059;SHT31;25763;49.972;8.568;2024-03-22T06:39:56;9.68;78.88
40059;SHT31;25763;49.972;8.568;2024-03-22T06:42:23;9.79;78.77
40059;SHT31;25763;49.972;8.568;2024-03-22T06:44:49;9.89;78.85
40059;SHT31;25763;49.972;8.568;2024-03-22T06:47:14;9.93;78.85
40059;SHT31;25763;49.972;8.568;2024-03-22T06:49:40;10.02;78.71
40059;SHT31;25763;49.972;8.568;2024-03-22T06:52:05;10.08;78.58
40059;SHT31;25763;49.972;8.568;2024-03-22T06:54:31;10.05;78.34
40059;SHT31;25763;49.972;8.568;2024-03-22T06:56:56;10.08;78.29
40059;SHT31;25763;49.972;8.568;2024-03-22T06:59:22;10.08;78.40
40059;SHT31;25763;49.972;8.568;2024-03-22T07:01:47;10.13;78.23
40059;SHT31;25763;49.972;8.568;2024-03-22T07:04:12;10.20;78.03
40059;SHT31;25763;49.972;8.568;2024-03-22T07:06:37;10.20;77.89
40059;SHT31;25763;49.972;8.568;2024-03-22T07:09:03;10.27;77.87
40059;SHT31;25763;49.972;8.568;2024-03-22T07:11:29;10.31;77.84
40059;SHT31;25763;49.972;8.568;2024-03-22T07:13:55;10.35;77.63
40059;SHT31;25763;49.972;8.568;2024-03-22T07:16:20;10.41;77.49
40059;SHT31;25763;49.972;8.568;2024-03-22T07:18:45;10.41;77.27
40059;SHT31;25763;49.972;8.568;2024-03-22T07:21:13;10.51;77.15
40059;SHT31;25763;49.972;8.568;2024-03-22T07:23:38;10.51;77.11
40059;SHT31;25763;49.972;8.568;2024-03-22T07:26:04;10.46;77.25
40059;SHT31;25763;49.972;8.568;2024-03-22T07:28:31;10.52;77.15
40059;SHT31;25763;49.972;8.568;2024-03-22T07:30:56;10.59;77.11
40059;SHT31;25763;49.972;8.568;2024-03-22T07:33:21;10.76;77.11
40059;SHT31;25763;49.972;8.568;2024-03-22T07:35:47;10.82;76.60
40059;SHT31;25763;49.972;8.568;2024-03-22T07:38:12;10.89;76.53
40059;SHT31;25763;49.972;8.568;2024-03-22T07:40:37;10.89;76.38
40059;SHT31;25763;49.972;8.568;2024-03-22T07:43:03;10.96;76.04
40059;SHT31;25763;49.972;8.568;2024-03-22T07:45:32;10.86;75.94
40059;SHT31;25763;49.972;8.568;2024-03-22T07:47:57;10.83;76.28
40059;SHT31;25763;49.972;8.568;2024-03-22T07:50:23;10.86;76.34
40059;SHT31;25763;49.972;8.568;2024-03-22T07:52:48;10.90;76.25
40059;SHT31;25763;49.972;8.568;2024-03-22T07:55:14;10.96;76.41
40059;SHT31;25763;49.972;8.568;2024-03-22T07:57:39;10.97;76.17
40059;SHT31;25763;49.972;8.568;2024-03-22T08:00:05;11.04;76.29
40059;SHT31;25763;49.972;8.568;2024-03-22T08:02:31;11.15;76.33
40059;SHT31;25763;49.972;8.568;2024-03-22T08:04:57;11.18;75.84
40059;SHT31;25763;49.972;8.568;2024-03-22T08:07:22;11.14;75.96
40059;SHT31;25763;49.972;8.568;2024-03-22T08:09:47;11.20;75.82
40059;SHT31;25763;49.972;8.568;2024-03-22T08:12:13;11.28;76.10
40059;SHT31;25763;49.972;8.568;2024-03-22T08:14:38;11.25;75.76
40059;SHT31;25763;49.972;8.568;2024-03-22T08:17:03;11.22;75.89
40059;SHT31;25763;49.972;8.568;2024-03-22T08:19:29;11.24;76.05
40059;SHT31;25763;49.972;8.568;2024-03-22T08:21:54;11.29;76.27
40059;SHT31;25763;49.972;8.568;2024-03-22T08:24:19;11.29;75.90
40059;SHT31;25763;49.972;8.568;2024-03-22T08:26:45;11.39;75.87
40059;SHT31;25763;49.972;8.568;2024-03-22T08:29:13;11.44;75.86
40059;SHT31;25763;49.972;8.568;2024-03-22T08:31:40;11.52;75.90
40059;SHT31;25763;49.972;8.568;2024-03-22T08:34:05;11.65;75.77
40059;SHT31;25763;49.972;8.568;2024-03-22T08:36:31;11.70;75.52
40059;SHT31;25763;49.972;8.568;2024-03-22T08:38:56;11.83;75.70
40059;SHT31;25763;49.972;8.568;2024-03-22T08:41:21;11.94;75.19
40059;SHT31;25763;49.972;8.568;2024-03-22T08:43:47;11.93;74.65
40059;SHT31;25763;49.972;8.568;2024-03-22T08:46:12;12.01;74.68
40059;SHT31;25763;49.972;8.568;2024-03-22T08:48:38;12.17;74.39
40059;SHT31;25763;49.972;8.568;2024-03-22T08:51:03;12.22;74.14
40059;SHT31;25763;49.972;8.568;2024-03-22T08:53:28;12.30;73.89
40059;SHT31;25763;49.972;8.568;2024-03-22T08:55:53;12.49;73.82
40059;SHT31;25763;49.972;8.568;2024-03-22T08:58:19;12.71;73.51
40059;SHT31;25763;49.972;8.568;2024-03-22T09:00:44;12.84;72.73
40059;SHT31;25763;49.972;8.568;2024-03-22T09:03:10;12.88;72.57
40059;SHT31;25763;49.972;8.568;2024-03-22T09:05:35;12.92;72.36
40059;SHT31;25763;49.972;8.568;2024-03-22T09:08:02;12.85;72.03
40059;SHT31;25763;49.972;8.568;2024-03-22T09:10:29;13.02;71.96
40059;SHT31;25763;49.972;8.568;2024-03-22T09:12:55;13.12;71.86
40059;SHT31;25763;49.972;8.568;2024-03-22T09:15:21;13.30;71.45
40059;SHT31;25763;49.972;8.568;2024-03-22T09:17:46;13.29;70.87
40059;SHT31;25763;49.972;8.568;2024-03-22T09:20:12;13.50;71.00
40059;SHT31;25763;49.972;8.568;2024-03-22T09:22:37;13.50;70.57
40059;SHT31;25763;49.972;8.568;2024-03-22T09:25:04;13.57;70.36
40059;SHT31;25763;49.972;8.568;2024-03-22T09:27:31;13.61;70.48
40059;SHT31;25763;49.972;8.568;2024-03-22T09:29:57;13.55;69.74
40059;SHT31;25763;49.972;8.568;2024-03-22T09:32:23;13.51;70.02
40059;SHT31;25763;49.972;8.568;2024-03-22T09:34:49;13.68;70.20
40059;SHT31;25763;49.972;8.568;2024-03-22T09:37:15;13.79;69.86
40059;SHT31;25763;49.972;8.568;2024-03-22T09:39:40;13.98;69.58
40059;SHT31;25763;49.972;8.568;2024-03-22T09:42:06;13.88;69.64
40059;SHT31;25763;49.972;8.568;2024-03-22T09:44:32;13.88;69.58
40059;SHT31;25763;49.972;8.568;2024-03-22T09:46:59;13.91;69.66
40059;SHT31;25763;49.972;8.568;2024-03-22T09:49:25;13.98;69.61
40059;SHT31;25763;49.972;8.568;2024-03-22T09:51:51;14.12;69.75
40059;SHT31;25763;49.972;8.568;2024-03-22T09:54:17;14.16;69.05
40059;SHT31;25763;49.972;8.568;2024-03-22T09:56:43;14.24;68.80
40059;SHT31;25763;49.972;8.568;2024-03-22T09:59:09;14.30;68.78
40059;SHT31;25763;49.972;8.568;2024-03-22T10:01:36;14.28;68.69
40059;SHT31;25763;49.972;8.568;2024-03-22T10:04:01;14.50;68.40
40059;SHT31;25763;49.972;8.568;2024-03-22T10:06:29;14.72;67.96
40059;SHT31;25763;49.972;8.568;2024-03-22T10:08:54;14.65;67.96
40059;SHT31;25763;49.972;8.568;2024-03-22T10:11:20;14.87;67.78
40059;SHT31;25763;49.972;8.568;2024-03-22T10:13:45;14.85;66.87
40059;SHT31;25763;49.972;8.568;2024-03-22T10:16:12;14.85;67.54
40059;SHT31;25763;49.972;8.568;2024-03-22T10:18:37;15.08;67.21
40059;SHT31;25763;49.972;8.568;2024-03-22T10:21:06;15.24;66.43
40059;SHT31;25763;49.972;8.568;2024-03-22T10:23:31;15.34;65.88
40059;SHT31;25763;49.972;8.568;2024-03-22T10:25:57;15.46;65.76
40059;SHT31;25763;49.972;8.568;2024-03-22T10:28:24;15.62;65.30
40059;SHT31;25763;49.972;8.568;2024-03-22T10:30:51;15.90;64.74
40059;SHT31;25763;49.972;8.568;2024-03-22T10:33:18;16.00;63.65
40059;SHT31;25763;49.972;8.568;2024-03-22T10:35:45;16.04;63.77
40059;SHT31;25763;49.972;8.568;2024-03-22T10:38:12;16.40;63.35
40059;SHT31;25763;49.972;8.568;2024-03-22T10:40:40;16.38;63.15
40059;SHT31;25763;49.972;8.568;2024-03-22T10:43:05;16.65;63.13
40059;SHT31;25763;49.972;8.568;2024-03-22T10:45:31;16.68;62.87
40059;SHT31;25763;49.972;8.568;2024-03-22T10:47:56;16.60;62.91
40059;SHT31;25763;49.972;8.568;2024-03-22T10:50:22;16.32;63.22
40059;SHT31;25763;49.972;8.568;2024-03-22T10:52:52;16.55;63.54
40059;SHT31;25763;49.972;8.568;2024-03-22T10:55:28;16.57;63.57
40059;SHT31;25763;49.972;8.568;2024-03-22T10:57:56;16.53;62.90
40059;SHT31;25763;49.972;8.568;2024-03-22T11:00:33;16.38;63.51
40059;SHT31;25763;49.972;8.568;2024-03-22T11:02:59;16.36;63.83
40059;SHT31;25763;49.972;8.568;2024-03-22T11:05:27;16.38;64.11
40059;SHT31;25763;49.972;8.568;2024-03-22T11:08:05;16.28;63.85
40059;SHT31;25763;49.972;8.568;2024-03-22T11:10:34;16.47;64.11
40059;SHT31;25763;49.972;8.568;2024-03-22T11:13:08;16.53;63.82
40059;SHT31;25763;49.972;8.568;2024-03-22T11:15:34;16.45;63.88
40059;SHT31;25763;49.972;8.568;2024-03-22T11:18:00;16.45;64.08
40059;SHT31;25763;49.972;8.568;2024-03-22T11:20:27;16.64;64.08
40059;SHT31;25763;49.972;8.568;2024-03-22T11:22:52;16.88;63.31
40059;SHT31;25763;49.972;8.568;2024-03-22T11:25:18;17.16;62.68
40059;SHT31;25763;49.972;8.568;2024-03-22T11:27:45;17.74;61.88
40059;SHT31;25763;49.972;8.568;2024-03-22T11:30:10;18.30;60.51
40059;SHT31;25763;49.972;8.568;2024-03-22T11:32:36;18.27;59.63
40059;SHT31;25763;49.972;8.568;2024-03-22T11:35:09;18.20;59.53
40059;SHT31;25763;49.972;8.568;2024-03-22T11:37:35;17.84;59.88
40059;SHT31;25763;49.972;8.568;2024-03-22T11:40:01;17.73;59.80
40059;SHT31;25763;49.972;8.568;2024-03-22T11:42:29;17.99;59.93
40059;SHT31;25763;49.972;8.568;2024-03-22T11:44:55;17.91;59.01
40059;SHT31;25763;49.972;8.568;2024-03-22T11:47:20;17.73;59.27
40059;SHT31;25763;49.972;8.568;2024-03-22T11:49:46;17.67;59.42
40059;SHT31;25763;49.972;8.568;2024-03-22T11:52:11;17.60;59.84
40059;SHT31;25763;49.972;8.568;2024-03-22T11:54:36;17.63;59.75
40059;SHT31;25763;49.972;8.568;2024-03-22T11:57:02;17.50;59.95
40059;SHT31;25763;49.972;8.568;2024-03-22T11:59:29;17.81;59.20
40059;SHT31;25763;49.972;8.568;2024-03-22T12:01:54;17.89;59.84
40059;SHT31;25763;49.972;8.568;2024-03-22T12:04:20;17.92;59.50
40059;SHT31;25763;49.972;8.568;2024-03-22T12:06:45;18.02;59.35
40059;SHT31;25763;49.972;8.568;2024-03-22T12:09:13;18.03;59.48
40059;SHT31;25763;49.972;8.568;2024-03-22T12:11:39;18.20;59.29
40059;SHT31;25763;49.972;8.568;2024-03-22T12:14:05;18.26;58.47
40059;SHT31;25763;49.972;8.568;2024-03-22T12:16:31;18.12;58.57
40059;SHT31;25763;49.972;8.568;2024-03-22T12:18:57;18.06;59.12
40059;SHT31;25763;49.972;8.568;2024-03-22T12:21:22;18.00;59.42
40059;SHT31;25763;49.972;8.568;2024-03-22T12:23:48;18.17;59.07
40059;SHT31;25763;49.972;8.568;2024-03-22T12:26:13;18.64;58.37
40059;SHT31;25763;49.972;8.568;2024-03-22T12:28:38;18.69;58.11
40059;SHT31;25763;49.972;8.568;2024-03-22T12:31:04;18.30;57.66
40059;SHT31;25763;49.972;8.568;2024-03-22T12:33:30;18.09;58.28
40059;SHT31;25763;49.972;8.568;2024-03-22T12:35:55;18.09;58.20
40059;SHT31;25763;49.972;8.568;2024-03-22T12:38:21;17.99;58.76
40059;SHT31;25763;49.972;8.568;2024-03-22T12:40:46;18.13;58.29
40059;SHT31;25763;49.972;8.568;2024-03-22T12:43:11;18.44;58.38
40059;SHT31;25763;49.972;8.568;2024-03-22T12:45:37;18.34;57.55
40059;SHT31;25763;49.972;8.568;2024-03-22T12:48:03;18.94;56.90
40059;SHT31;25763;49.972;8.568;2024-03-22T12:50:29;19.00;55.92
40059;SHT31;25763;49.972;8.568;2024-03-22T12:52:55;18.48;57.18
40059;SHT31;25763;49.972;8.568;2024-03-22T12:55:21;18.68;57.48
40059;SHT31;25763;49.972;8.568;2024-03-22T12:57:46;18.90;57.00
40059;SHT31;25763;49.972;8.568;2024-03-22T13:00:12;18.96;56.37
40059;SHT31;25763;49.972;8.568;2024-03-22T13:02:44;18.82;56.70
40059;SHT31;25763;49.972;8.568;2024-03-22T13:05:09;18.59;57.33
40059;SHT31;25763;49.972;8.568;2024-03-22T13:07:35;18.48;57.29
40059;SHT31;25763;49.972;8.568;2024-03-22T13:10:01;18.34;57.78
40059;SHT31;25763;49.972;8.568;2024-03-22T13:12:28;18.52;57.95
40059;SHT31;25763;49.972;8.568;2024-03-22T13:14:53;18.40;57.60
40059;SHT31;25763;49.972;8.568;2024-03-22T13:17:19;18.28;57.50
40059;SHT31;25763;49.972;8.568;2024-03-22T13:19:45;18.30;57.14
40059;SHT31;25763;49.972;8.568;2024-03-22T13:22:10;17.86;57.46
40059;SHT31;25763;49.972;8.568;2024-03-22T13:24:37;17.91;57.85
40059;SHT31;25763;49.972;8.568;2024-03-22T13:27:03;17.86;58.24
40059;SHT31;25763;49.972;8.568;2024-03-22T13:29:28;17.85;58.77
40059;SHT31;25763;49.972;8.568;2024-03-22T13:31:54;17.95;58.77
40059;SHT31;25763;49.972;8.568;2024-03-22T13:34:19;17.89;58.77
40059;SHT31;25763;49.972;8.568;2024-03-22T13:36:45;17.88;58.60
40059;SHT31;25763;49.972;8.568;2024-03-22T13:39:10;17.77;59.06
40059;SHT31;25763;49.972;8.568;2024-03-22T13:41:36;17.68;59.06
40059;SHT31;25763;49.972;8.568;2024-03-22T13:44:01;17.86;59.24
40059;SHT31;25763;49.972;8.568;2024-03-22T13:46:31;17.82;58.98
40059;SHT31;25763;49.972;8.568;2024-03-22T13:48:56;17.77;59.56
40059;SHT31;25763;49.972;8.568;2024-03-22T13:51:22;17.78;59.31
40059;SHT31;25763;49.972;8.568;2024-03-22T13:53:47;17.63;59.14
40059;SHT31;25763;49.972;8.568;2024-03-22T13:56:12;17.54;59.58
40059;SHT31;25763;49.972;8.568;2024-03-22T13:58:38;17.60;60.09
40059;SHT31;25763;49.972;8.568;2024-03-22T14:01:03;17.53;59.95
40059;SHT31;25763;49.972;8.568;2024-03-22T14:03:28;17.54;59.97
40059;SHT31;25763;49.972;8.568;2024-03-22T14:05:54;17.44;60.09
40059;SHT31;25763;49.972;8.568;2024-03-22T14:08:19;17.50;60.79
40059;SHT31;25763;49.972;8.568;2024-03-22T14:10:45;17.50;60.48
40059;SHT31;25763;49.972;8.568;2024-03-22T14:13:11;17.41;60.43
40059;SHT31;25763;49.972;8.568;2024-03-22T14:15:36;17.39;60.47
40059;SHT31;25763;49.972;8.568;2024-03-22T14:18:02;17.33;60.69
40059;SHT31;25763;49.972;8.568;2024-03-22T14:20:28;17.30;60.84
40059;SHT31;25763;49.972;8.568;2024-03-22T14:22:54;17.27;60.96
40059;SHT31;25763;49.972;8.568;2024-03-22T14:25:19;17.20;60.92
40059;SHT31;25763;49.972;8.568;2024-03-22T14:27:46;17.23;61.25
40059;SHT31;25763;49.972;8.568;2024-03-22T14:30:12;17.16;61.08
40059;SHT31;25763;49.972;8.568;2024-03-22T14:32:41;17.16;61.28
40059;SHT31;25763;49.972;8.568;2024-03-22T14:35:07;17.22;61.45
40059;SHT31;25763;49.972;8.568;2024-03-22T14:37:33;17.25;61.52
40059;SHT31;25763;49.972;8.568;2024-03-22T14:39:59;17.20;61.48
40059;SHT31;25763;49.972;8.568;2024-03-22T14:42:25;17.23;61.52
40059;SHT31;25763;49.972;8.568;2024-03-22T14:44:50;17.23;61.48
40059;SHT31;25763;49.972;8.568;2024-03-22T14:47:16;17.22;61.27
40059;SHT31;25763;49.972;8.568;2024-03-22T14:49:41;17.20;61.43
40059;SHT31;25763;49.972;8.568;2024-03-22T14:52:08;17.18;61.37
40059;SHT31;25763;49.972;8.568;2024-03-22T14:54:33;17.20;61.22
40059;SHT31;25763;49.972;8.568;2024-03-22T14:56:59;17.22;61.49
40059;SHT31;25763;49.972;8.568;2024-03-22T14:59:27;17.29;61.54
40059;SHT31;25763;49.972;8.568;2024-03-22T15:01:53;17.26;61.10
40059;SHT31;25763;49.972;8.568;2024-03-22T15:04:19;17.44;61.48
40059;SHT31;25763;49.972;8.568;2024-03-22T15:06:44;17.57;61.17
40059;SHT31;25763;49.972;8.568;2024-03-22T15:09:10;17.60;60.95
40059;SHT31;25763;49.972;8.568;2024-03-22T15:11:36;17.67;61.24
40059;SHT31;25763;49.972;8.568;2024-03-22T15:14:02;17.63;60.58
40059;SHT31;25763;49.972;8.568;2024-03-22T15:16:27;17.60;60.33
40059;SHT31;25763;49.972;8.568;2024-03-22T15:18:53;17.65;60.68
40059;SHT31;25763;49.972;8.568;2024-03-22T15:21:18;17.71;60.45
40059;SHT31;25763;49.972;8.568;2024-03-22T15:23:46;17.74;60.69
40059;SHT31;25763;49.972;8.568;2024-03-22T15:26:11;17.79;61.07
40059;SHT31;25763;49.972;8.568;2024-03-22T15:28:36;17.82;60.62